x

Dunkirk, Ny (dbln6) Weather Station

7:00am - Fri 27th May 2016 All times are CDT. -5 hours from GMT.

  • Wind
    6mph, 10mph gusts
  • Air Temp 72°f
  • Sea Pressure 1015.8mb
  • Dunkirk, Ny
  • Dunkirk, Ny

More Historic Weather Station data

Upgrade to MSW Pro to gain access to the past 30 days of data for over 8000 Wavebouys and Weather Stations around the globe.

Join Pro

Comparision Forecast

View Surf forecast
   
Fri 05/27 7:00am 6 10 mph 1015.8mb 72f
6:00am 7 10 mph 1015.8mb 71f
5:00am 6 10 mph 1015.2mb 71f
4:00am 6 9 mph 1014.7mb 71f
3:00am 6 9 mph 1014.9mb 72f
2:00am 7 11 mph 1015mb 73f
1:00am 6 11 mph 1015.2mb 73f
12:00am 6 10 mph 1015.6mb 72f
Thu 05/26 11:00pm 3 5 mph 1014.8mb 73f
10:00pm 8
mph
1014.6mb 72f
9:00pm 3 5 mph 1014.8mb 73f
8:00pm  -  1 mph 1014.7mb 74f
7:00pm 3
mph
1014.4mb 72f
6:00pm 5
mph
1014.3mb 71f
5:00pm 8 10 mph 1014.8mb 69f
4:00pm 1 2 mph 1015.2mb 70f
3:00pm 2
mph
1016mb 73f
2:00pm  -  1 mph 1016mb 69f
1:00pm 3 5 mph 1015.7mb 70f
12:00pm 5 6 mph 1015.9mb 71f
11:00am 6 10 mph 1016mb 73f
10:00am 9 11 mph 1016.3mb 78f
9:00am 8 10 mph 1016.8mb 72f
8:00am  -  2 mph 1017.1mb 72f
7:00am 2
mph
1017.5mb 71f
6:00am 10 15 mph 1017.1mb 69f
5:00am 9 11 mph 1017.2mb 68f
4:00am 8 10 mph 1017.2mb 68f
3:00am 6 8 mph 1017.7mb 69f
2:00am 7 9 mph 1017.7mb 71f
1:00am 6 9 mph 1017.8mb 70f
12:00am 7 8 mph 1017.8mb 68f
Wed 05/25 11:00pm 9 11 mph 1017.9mb 70f
10:00pm 10 11 mph 1017.8mb 71f
9:00pm 8 9 mph 1017.9mb 72f
8:00pm 6 8 mph 1017.7mb 74f
7:00pm 5 6 mph 1017.9mb 74f
6:00pm 9 11 mph 1017.9mb 74f
5:00pm 10 13 mph 1018.2mb 71f
4:00pm 15 16 mph 1018.1mb 69f
3:00pm 15 17 mph 1018.5mb 67f
2:00pm 18 21 mph 1018.7mb 67f
1:00pm 20 23 mph 1019.3mb 65f
12:00pm 20 22 mph 1019.3mb 65f
11:00am 17 20 mph 1018.9mb 66f
10:00am 18 21 mph 1018.4mb 66f
9:00am 17 20 mph 1018.2mb 68f
8:00am 17 18 mph 1018.3mb 69f
7:00am 10 15 mph 1018.4mb 70f
6:00am 6 10 mph 1018.3mb 68f
5:00am 7 9 mph 1017.6mb 65f
4:00am 8 10 mph 1016.9mb 65f
3:00am 7 11 mph 1016.7mb 66f
2:00am 8 11 mph 1016.5mb 65f
1:00am 9 13 mph 1016.5mb 65f
12:00am 8 13 mph 1016.6mb 66f
Tue 05/24 11:00pm 9 14 mph 1017.1mb 67f
10:00pm 7 11 mph 1017.1mb 67f
9:00pm 7 10 mph 1016.7mb 67f
8:00pm 14 16 mph 1016.1mb 68f
7:00pm 14 17 mph 1015.8mb 63f
6:00pm 15 17 mph 1015.7mb 65f
5:00pm 14 17 mph 1015.9mb 64f
4:00pm 20 22 mph 1016mb 63f
3:00pm 18 21 mph 1016.1mb 64f
2:00pm 20 22 mph 1016.6mb 63f
1:00pm 21 22 mph 1016.4mb 63f
12:00pm 22 24 mph 1016.8mb 63f
11:00am 18 21 mph 1017.4mb 61f
10:00am 15 17 mph 1017.4mb 61f
9:00am 13 14 mph 1017.5mb 60f
8:00am 10 11 mph 1017.2mb 63f
7:00am 7 10 mph 1016.6mb 62f
6:00am 6 8 mph 1016.7mb 60f
5:00am 9 11 mph 1016.2mb 58f
4:00am 8 11 mph 1016mb 59f
3:00am 7 8 mph 1015.9mb 59f
2:00am 9 13 mph 1015.8mb 60f
1:00am 9 13 mph 1015.9mb 60f
12:00am 9 13 mph 1015.9mb 60f
Mon 05/23 11:00pm 9 13 mph 1016.1mb 60f
10:00pm 10 14 mph 1015.8mb 61f
9:00pm 8 11 mph 1015.6mb 61f
8:00pm 10 11 mph 1015.1mb 60f
7:00pm 13 15 mph 1014.9mb 59f
6:00pm 13 14 mph 1015.1mb 60f
5:00pm 13 14 mph 1014.9mb 60f
4:00pm 11 13 mph 1015.2mb 60f
3:00pm 13 14 mph 1015.9mb 60f
2:00pm 11 13 mph 1016.8mb 60f